Time;durP1;ratioP1;P1;durP2;ratioP2;P2;SDS_P1;SDS_P2;PMS_P1;PMS_P2;Temp;Humidity;BMP_temperature;BMP_pressure;BME280_temperature;BME280_humidity;BME280_pressure;Samples;Min_cycle;Max_cycle;Signal;HPM_P1;HPM_P2
2022/08/29 00:01:53;;;;;;;2.37;1.93;;;16.80;99.90;;;;;;5048663;28;20623;-82
2022/08/29 00:04:20;;;;;;;3.20;2.67;;;16.80;99.90;;;;;;5047890;28;20715;-82
2022/08/29 00:06:48;;;;;;;2.60;2.43;;;16.70;99.90;;;;;;5046528;28;21215;-82
2022/08/29 00:09:15;;;;;;;2.47;2.00;;;16.60;99.90;;;;;;5048258;28;20639;-82
2022/08/29 00:11:42;;;;;;;3.07;2.77;;;16.70;99.90;;;;;;5047455;28;20654;-82
2022/08/29 00:14:09;;;;;;;2.20;2.00;;;16.70;99.90;;;;;;5046306;28;20915;-82
2022/08/29 00:16:36;;;;;;;2.63;2.00;;;16.70;99.90;;;;;;5047202;28;20729;-81
2022/08/29 00:19:02;;;;;;;3.80;2.43;;;16.70;99.90;;;;;;5047718;28;20743;-82
2022/08/29 00:21:29;;;;;;;2.93;2.70;;;16.70;99.90;;;;;;5047738;28;21101;-82
2022/08/29 00:23:58;;;;;;;3.00;2.20;;;16.70;99.90;;;;;;5048637;28;21283;-82
2022/08/29 00:26:25;;;;;;;2.07;1.87;;;16.70;99.90;;;;;;5047417;28;21400;-82
2022/08/29 00:28:52;;;;;;;3.13;2.70;;;16.70;99.90;;;;;;5047900;28;20622;-82
2022/08/29 00:31:19;;;;;;;3.83;2.57;;;16.70;99.90;;;;;;5047921;28;20733;-81
2022/08/29 00:33:46;;;;;;;4.13;3.30;;;16.70;99.90;;;;;;5046888;28;20634;-82
2022/08/29 00:36:13;;;;;;;3.13;2.50;;;16.70;99.90;;;;;;5047603;28;20662;-83
2022/08/29 00:38:40;;;;;;;2.47;2.00;;;16.60;99.90;;;;;;5047541;28;21036;-82
2022/08/29 00:41:08;;;;;;;3.07;2.87;;;16.60;99.90;;;;;;5047340;28;20627;-82
2022/08/29 00:43:37;;;;;;;2.50;2.30;;;16.60;99.90;;;;;;5047714;28;20650;-81
2022/08/29 00:46:26;;;;;;;2.70;2.40;;;16.60;99.90;;;;;;5048108;28;20713;-82
2022/08/29 00:48:56;;;;;;;2.87;2.50;;;16.50;99.90;;;;;;5047789;28;21204;-81
2022/08/29 00:51:24;;;;;;;3.17;2.97;;;16.50;99.90;;;;;;5048262;28;20669;-82
2022/08/29 00:53:59;;;;;;;2.60;2.40;;;16.50;99.90;;;;;;5047948;28;21254;-81
2022/08/29 00:56:28;;;;;;;2.87;2.37;;;16.40;99.90;;;;;;5047438;28;20626;-81
2022/08/29 00:58:59;;;;;;;3.43;2.50;;;16.40;99.90;;;;;;5047088;28;20622;-81
2022/08/29 01:01:26;;;;;;;2.70;2.30;;;16.40;99.90;;;;;;5048003;28;20615;-81
2022/08/29 01:03:54;;;;;;;4.60;2.63;;;16.30;99.90;;;;;;5047306;28;21326;-82
2022/08/29 01:06:22;;;;;;;2.97;2.43;;;16.30;99.90;;;;;;5046028;28;20746;-82
2022/08/29 01:08:49;;;;;;;2.83;2.63;;;16.40;99.90;;;;;;5047047;28;21230;-82
2022/08/29 01:14:05;;;;;;;4.13;2.37;;;16.40;99.90;;;;;;5046251;28;20634;-81
2022/08/29 01:16:32;;;;;;;3.33;2.97;;;16.40;99.90;;;;;;5046193;28;20634;-81
2022/08/29 01:19:07;;;;;;;2.43;2.23;;;16.40;99.90;;;;;;5047026;28;21258;-82
2022/08/29 01:21:43;;;;;;;3.07;2.40;;;16.50;99.90;;;;;;5046830;28;20622;-82
2022/08/29 01:24:24;;;;;;;2.67;2.47;;;16.30;99.90;;;;;;5027849;28;20662;-82
2022/08/29 01:26:52;;;;;;;5.90;3.37;;;16.30;99.90;;;;;;5043827;28;20990;-81
2022/08/29 01:29:19;;;;;;;3.83;2.70;;;16.20;99.90;;;;;;5046796;28;21430;-81
2022/08/29 01:31:49;;;;;;;4.40;2.53;;;16.20;99.90;;;;;;5046615;28;20627;-81
2022/08/29 01:34:19;;;;;;;2.73;2.43;;;16.30;99.90;;;;;;5046909;28;21192;-82
2022/08/29 01:36:50;;;;;;;1.93;1.83;;;16.30;99.90;;;;;;5046654;28;20621;-82
2022/08/29 01:39:21;;;;;;;3.90;3.23;;;16.30;99.90;;;;;;5047245;28;20633;-81
2022/08/29 01:41:51;;;;;;;3.97;3.57;;;16.30;99.90;;;;;;5047088;28;20626;-82
2022/08/29 01:44:24;;;;;;;3.07;2.83;;;16.10;99.90;;;;;;5047213;28;21247;-82
2022/08/29 01:46:53;;;;;;;3.73;2.30;;;16.20;99.90;;;;;;5030220;28;20974;-83
2022/08/29 01:49:23;;;;;;;3.97;2.80;;;16.20;99.90;;;;;;5050873;28;20668;-82
2022/08/29 01:51:51;;;;;;;2.73;2.53;;;16.20;99.90;;;;;;5051449;28;20607;-81
2022/08/29 01:54:20;;;;;;;4.73;3.10;;;16.00;99.90;;;;;;5050794;28;20975;-82
2022/08/29 01:56:51;;;;;;;4.03;3.33;;;16.00;99.90;;;;;;5050745;28;21060;-83
2022/08/29 01:59:21;;;;;;;4.33;3.53;;;16.00;99.90;;;;;;5050297;28;20622;-81
2022/08/29 02:01:51;;;;;;;3.20;2.90;;;16.00;99.90;;;;;;5050479;28;20623;-81
2022/08/29 02:04:19;;;;;;;3.53;2.73;;;16.00;99.90;;;;;;5050555;28;20776;-82
2022/08/29 02:06:46;;;;;;;3.80;2.97;;;16.00;99.90;;;;;;5049390;28;20668;-81
2022/08/29 02:09:13;;;;;;;3.10;2.60;;;16.00;99.90;;;;;;5050508;28;20622;-81
2022/08/29 02:11:40;;;;;;;2.97;2.50;;;15.80;99.90;;;;;;5050303;28;20617;-81
2022/08/29 02:14:09;;;;;;;3.47;2.90;;;15.80;99.90;;;;;;5050171;28;20741;-81
2022/08/29 02:16:36;;;;;;;4.17;3.77;;;15.80;99.90;;;;;;5048231;28;20669;-82
2022/08/29 02:19:04;;;;;;;4.20;3.33;;;15.80;99.90;;;;;;5050507;28;20631;-81
2022/08/29 02:21:32;;;;;;;3.10;2.80;;;15.80;99.90;;;;;;5050457;28;20629;-81
2022/08/29 02:24:02;;;;;;;2.87;2.40;;;15.80;99.90;;;;;;5050137;28;20662;-81
2022/08/29 02:26:30;;;;;;;6.37;3.83;;;15.80;99.90;;;;;;5049324;28;20611;-81
2022/08/29 02:28:57;;;;;;;2.80;2.60;;;15.80;99.90;;;;;;5050186;28;20896;-81
2022/08/29 02:31:26;;;;;;;5.33;3.40;;;15.70;99.90;;;;;;5050576;28;21028;-82
2022/08/29 02:33:54;;;;;;;3.10;2.80;;;15.60;99.90;;;;;;5050244;28;20692;-81
2022/08/29 02:36:22;;;;;;;3.40;3.10;;;15.50;99.90;;;;;;5049225;28;20650;-82
2022/08/29 02:38:50;;;;;;;3.37;2.83;;;15.50;99.90;;;;;;5049484;28;20738;-81
2022/08/29 02:41:18;;;;;;;4.50;3.20;;;15.60;99.90;;;;;;5050228;28;20615;-81
2022/08/29 02:43:45;;;;;;;3.90;3.57;;;15.60;99.90;;;;;;5049902;28;20672;-82
2022/08/29 02:46:15;;;;;;;3.27;2.87;;;15.60;99.90;;;;;;5049814;28;20631;-83
2022/08/29 02:48:45;;;;;;;3.30;3.00;;;15.60;99.90;;;;;;5050397;28;20610;-81
2022/08/29 02:51:19;;;;;;;5.27;3.73;;;15.40;99.90;;;;;;5049990;28;20933;-81
2022/08/29 02:53:47;;;;;;;4.13;2.90;;;15.50;99.90;;;;;;5050422;28;21022;-82
2022/08/29 02:56:14;;;;;;;3.43;2.90;;;15.40;99.90;;;;;;5048893;28;21223;-82
2022/08/29 02:58:41;;;;;;;3.80;3.30;;;15.40;99.90;;;;;;5049382;28;20737;-81
2022/08/29 03:01:09;;;;;;;4.30;3.60;;;15.40;99.90;;;;;;5049650;28;21271;-82
2022/08/29 03:03:36;;;;;;;3.77;3.30;;;15.40;99.90;;;;;;5049367;28;20999;-82
2022/08/29 03:06:04;;;;;;;3.50;3.17;;;15.40;99.90;;;;;;5048283;28;20614;-81
2022/08/29 03:08:31;;;;;;;4.70;3.03;;;15.50;99.90;;;;;;5048923;28;20650;-82
2022/08/29 03:10:58;;;;;;;4.10;3.70;;;15.40;99.90;;;;;;5049624;28;21180;-81
2022/08/29 03:13:25;;;;;;;4.10;3.70;;;15.60;99.90;;;;;;5047907;28;20619;-83
2022/08/29 03:15:52;;;;;;;4.30;3.77;;;15.40;99.90;;;;;;5047373;28;20729;-81
2022/08/29 03:18:19;;;;;;;4.80;3.33;;;15.40;99.90;;;;;;5048648;28;20730;-81
2022/08/29 03:20:46;;;;;;;4.47;3.57;;;15.30;99.90;;;;;;5049147;28;20629;-81
2022/08/29 03:23:15;;;;;;;4.53;3.90;;;15.20;99.90;;;;;;5049687;28;20717;-81
2022/08/29 03:25:42;;;;;;;4.07;3.67;;;15.10;99.90;;;;;;5049665;28;20654;-81
2022/08/29 03:28:09;;;;;;;3.67;3.37;;;15.10;99.90;;;;;;5048444;28;20630;-81
2022/08/29 03:30:36;;;;;;;5.73;2.67;;;15.20;99.90;;;;;;5048722;28;20776;-81
2022/08/29 03:33:04;;;;;;;3.77;3.17;;;15.10;99.90;;;;;;5048733;28;20622;-81
2022/08/29 03:35:31;;;;;;;5.60;3.10;;;15.10;99.90;;;;;;5049501;28;20767;-82
2022/08/29 03:37:58;;;;;;;3.93;3.40;;;15.00;99.90;;;;;;5048840;28;20987;-81
2022/08/29 03:40:27;;;;;;;4.20;3.40;;;15.10;99.90;;;;;;5048842;28;20630;-82
2022/08/29 03:42:55;;;;;;;3.23;2.93;;;15.10;99.90;;;;;;5048580;28;20631;-82
2022/08/29 03:45:24;;;;;;;3.50;3.20;;;15.00;99.90;;;;;;5048533;28;20782;-81
2022/08/29 03:47:51;;;;;;;3.30;3.00;;;15.00;99.90;;;;;;5048042;28;20963;-82
2022/08/29 03:50:20;;;;;;;4.20;2.33;;;14.90;99.90;;;;;;5049158;28;20622;-81
2022/08/29 03:52:47;;;;;;;3.60;3.40;;;15.00;99.90;;;;;;5048504;28;20658;-81
2022/08/29 03:55:15;;;;;;;3.30;3.00;;;14.90;99.90;;;;;;5048772;28;20644;-82
2022/08/29 03:57:44;;;;;;;4.30;3.13;;;14.90;99.90;;;;;;5048216;28;20655;-82
2022/08/29 04:00:15;;;;;;;4.80;4.40;;;14.90;99.90;;;;;;5048130;28;20619;-81
2022/08/29 04:02:44;;;;;;;4.50;3.20;;;14.80;99.90;;;;;;5049041;28;20659;-81
2022/08/29 04:05:11;;;;;;;5.30;2.77;;;14.80;99.90;;;;;;5048539;28;20689;-81
2022/08/29 04:07:41;;;;;;;3.10;2.80;;;14.80;99.90;;;;;;5046538;28;20706;-81
2022/08/29 04:10:09;;;;;;;3.77;3.37;;;14.80;99.90;;;;;;5048666;28;20611;-81
2022/08/29 04:12:37;;;;;;;3.73;2.60;;;14.80;99.90;;;;;;5048887;28;20632;-82
2022/08/29 04:15:08;;;;;;;3.20;2.90;;;14.90;99.90;;;;;;5047881;28;20623;-83
2022/08/29 04:17:36;;;;;;;2.83;2.50;;;14.80;99.90;;;;;;5045897;28;21200;-82
2022/08/29 04:20:04;;;;;;;3.33;2.93;;;14.80;99.90;;;;;;5048526;28;20954;-81
2022/08/29 04:22:31;;;;;;;3.60;2.47;;;14.70;99.90;;;;;;5048257;28;20721;-81
2022/08/29 04:24:58;;;;;;;3.13;2.83;;;14.70;99.90;;;;;;5048021;28;20670;-82
2022/08/29 04:27:24;;;;;;;3.17;2.83;;;14.70;99.90;;;;;;5046762;28;21047;-81
2022/08/29 04:29:51;;;;;;;4.40;3.20;;;14.70;99.90;;;;;;5047648;28;20619;-82
2022/08/29 04:32:19;;;;;;;3.57;2.87;;;14.70;99.90;;;;;;5048046;28;20716;-81
2022/08/29 04:34:46;;;;;;;3.33;2.80;;;14.60;99.90;;;;;;5043863;28;20729;-82
2022/08/29 04:37:13;;;;;;;3.67;3.30;;;14.60;99.90;;;;;;5046963;28;21226;-81
2022/08/29 04:39:42;;;;;;;3.77;3.00;;;14.70;99.90;;;;;;5046956;28;20634;-81
2022/08/29 04:42:08;;;;;;;2.70;2.50;;;14.70;99.90;;;;;;5048362;28;20737;-81
2022/08/29 04:44:35;;;;;;;5.20;3.40;;;14.70;99.90;;;;;;5047438;28;20766;-81
2022/08/29 04:47:02;;;;;;;2.07;1.87;;;14.60;99.90;;;;;;5047193;28;20658;-81
2022/08/29 04:49:30;;;;;;;3.60;2.97;;;14.60;99.90;;;;;;5047508;28;20630;-81
2022/08/29 04:51:57;;;;;;;2.23;2.07;;;14.80;99.90;;;;;;5046607;28;21112;-81
2022/08/29 04:54:24;;;;;;;4.43;3.20;;;14.60;99.90;;;;;;5047300;28;20627;-81
2022/08/29 04:56:51;;;;;;;6.93;3.90;;;14.70;99.90;;;;;;5047148;28;20650;-82
2022/08/29 04:59:19;;;;;;;3.70;3.33;;;14.70;99.90;;;;;;5047274;28;21205;-81
2022/08/29 05:01:46;;;;;;;3.10;2.73;;;14.70;99.90;;;;;;5047705;28;20626;-81
2022/08/29 05:04:13;;;;;;;5.40;3.47;;;14.70;99.90;;;;;;5046849;28;20650;-82
2022/08/29 05:06:42;;;;;;;2.70;2.50;;;14.80;99.90;;;;;;5046511;28;20635;-84
2022/08/29 05:09:09;;;;;;;3.60;3.23;;;14.80;99.90;;;;;;5047115;28;20960;-82
2022/08/29 05:11:36;;;;;;;4.03;3.00;;;14.80;99.90;;;;;;5047290;28;20684;-82
2022/08/29 05:14:02;;;;;;;4.67;4.27;;;14.70;99.90;;;;;;5045536;28;20646;-82
2022/08/29 05:16:35;;;;;;;4.40;3.23;;;14.70;99.90;;;;;;5044667;28;20669;-82
2022/08/29 05:19:04;;;;;;;4.10;2.77;;;14.70;99.90;;;;;;5046588;28;20634;-82
2022/08/29 05:21:34;;;;;;;3.20;2.90;;;14.80;99.90;;;;;;5046052;28;20797;-82
2022/08/29 05:24:03;;;;;;;2.63;2.40;;;14.80;99.90;;;;;;5046847;28;20701;-82
2022/08/29 05:26:31;;;;;;;2.80;2.60;;;14.80;99.90;;;;;;5043466;28;21197;-82
2022/08/29 05:28:58;;;;;;;4.77;3.47;;;14.80;99.90;;;;;;5045966;28;20634;-82
2022/08/29 05:31:25;;;;;;;3.47;2.63;;;14.80;99.90;;;;;;5046248;28;20618;-84
2022/08/29 05:33:52;;;;;;;3.10;2.63;;;14.90;99.90;;;;;;5045666;28;20738;-82
2022/08/29 05:36:19;;;;;;;3.47;3.13;;;15.00;99.90;;;;;;5045969;28;20622;-83
2022/08/29 05:38:46;;;;;;;5.63;3.63;;;14.90;99.90;;;;;;5046676;28;20636;-83
2022/08/29 05:41:14;;;;;;;3.30;3.00;;;15.20;99.90;;;;;;5046490;28;20626;-83
2022/08/29 05:43:41;;;;;;;3.03;2.67;;;15.20;99.90;;;;;;5047380;28;20658;-83
2022/08/29 05:46:10;;;;;;;4.90;2.90;;;15.20;99.90;;;;;;5046693;28;21293;-83
2022/08/29 05:48:40;;;;;;;2.83;2.57;;;15.40;99.90;;;;;;5046137;28;20626;-83
2022/08/29 05:51:07;;;;;;;3.40;3.10;;;15.40;99.90;;;;;;5046597;28;20618;-83
2022/08/29 05:53:34;;;;;;;4.40;3.47;;;15.30;99.90;;;;;;5046590;28;20665;-83
2022/08/29 05:56:01;;;;;;;4.67;4.07;;;15.30;99.90;;;;;;5046102;28;20646;-83
2022/08/29 05:58:29;;;;;;;3.37;3.07;;;15.40;99.90;;;;;;5046327;28;20648;-83
2022/08/29 06:00:56;;;;;;;4.30;3.90;;;15.40;99.90;;;;;;5041066;28;21088;-83
2022/08/29 06:03:23;;;;;;;3.93;3.53;;;15.60;99.90;;;;;;5040373;28;20634;-82
2022/08/29 06:05:52;;;;;;;4.03;3.63;;;15.60;99.90;;;;;;5025241;28;20662;-83
2022/08/29 06:08:19;;;;;;;5.23;3.17;;;15.70;99.90;;;;;;5038235;28;20744;-83
2022/08/29 06:10:47;;;;;;;4.77;4.23;;;15.80;99.90;;;;;;5041161;28;20726;-86
2022/08/29 06:13:14;;;;;;;5.00;3.20;;;16.20;99.90;;;;;;5040246;28;20819;-84
2022/08/29 06:15:44;;;;;;;5.80;4.33;;;18.90;99.90;;;;;;5038921;28;20626;-86
2022/08/29 06:18:12;;;;;;;4.37;3.77;;;16.30;99.90;;;;;;5038332;28;20654;-84
2022/08/29 06:20:40;;;;;;;7.57;4.10;;;16.30;99.90;;;;;;5040642;28;20697;-84
2022/08/29 06:23:07;;;;;;;4.67;3.03;;;16.40;99.90;;;;;;5040432;28;20710;-83
2022/08/29 06:25:34;;;;;;;10.93;4.47;;;16.70;99.90;;;;;;5040732;28;20668;-84
2022/08/29 06:28:01;;;;;;;4.70;4.00;;;16.50;99.90;;;;;;5039394;28;22363;-85
2022/08/29 06:30:31;;;;;;;4.83;3.63;;;16.70;99.90;;;;;;5040252;28;20630;-85
2022/08/29 06:33:00;;;;;;;5.30;4.27;;;16.80;99.90;;;;;;5042894;28;20621;-84
2022/08/29 06:35:27;;;;;;;5.23;3.67;;;17.20;99.90;;;;;;5043488;28;20630;-84
2022/08/29 06:37:54;;;;;;;6.03;4.87;;;17.10;99.90;;;;;;5042914;28;20654;-83
2022/08/29 06:40:21;;;;;;;3.33;2.93;;;17.50;99.90;;;;;;5044045;28;20622;-84
2022/08/29 06:42:48;;;;;;;4.77;4.27;;;17.40;99.90;;;;;;5046742;28;20661;-83
2022/08/29 06:45:18;;;;;;;8.53;5.53;;;17.80;99.90;;;;;;5043899;28;20658;-87
2022/08/29 06:47:46;;;;;;;5.20;4.67;;;17.90;99.90;;;;;;5043662;28;20684;-84
2022/08/29 06:50:16;;;;;;;6.27;3.93;;;17.90;99.90;;;;;;5044201;28;20622;-85
2022/08/29 06:52:43;;;;;;;5.00;4.60;;;17.80;99.90;;;;;;5043202;28;20641;-84
2022/08/29 06:55:11;;;;;;;5.40;3.53;;;17.90;99.90;;;;;;5042733;28;20642;-84
2022/08/29 06:57:41;;;;;;;4.43;4.00;;;18.00;99.90;;;;;;5043497;28;20733;-84
2022/08/29 07:00:15;;;;;;;4.23;3.47;;;18.10;99.90;;;;;;5042358;28;20638;-85
2022/08/29 07:02:42;;;;;;;4.00;2.97;;;18.00;99.90;;;;;;5043412;28;21171;-84
2022/08/29 07:05:10;;;;;;;3.97;3.60;;;17.90;99.90;;;;;;5043403;28;21089;-84
2022/08/29 07:07:40;;;;;;;5.00;4.40;;;17.90;99.90;;;;;;5042210;28;20622;-84
2022/08/29 07:10:11;;;;;;;5.20;4.10;;;18.00;99.90;;;;;;5042040;28;20647;-85
2022/08/29 07:12:38;;;;;;;3.77;3.47;;;18.10;99.90;;;;;;5043160;28;21087;-84
2022/08/29 07:15:06;;;;;;;9.00;5.13;;;18.20;99.90;;;;;;5042621;28;20626;-84
2022/08/29 07:17:35;;;;;;;4.37;3.97;;;18.30;99.90;;;;;;5040677;28;20730;-84
2022/08/29 07:20:03;;;;;;;5.70;3.70;;;18.30;99.90;;;;;;5023187;28;20722;-85
2022/08/29 07:22:33;;;;;;;6.07;4.03;;;18.70;99.90;;;;;;5042274;28;20657;-84
2022/08/29 07:25:01;;;;;;;5.03;3.90;;;19.00;99.90;;;;;;5042700;28;20668;-84
2022/08/29 07:27:28;;;;;;;5.90;4.23;;;19.50;99.90;;;;;;5042445;28;20637;-84
2022/08/29 07:29:55;;;;;;;6.10;3.73;;;19.30;99.90;;;;;;5042883;28;21208;-87
2022/08/29 07:32:22;;;;;;;5.33;3.80;;;19.20;99.90;;;;;;5042868;28;20692;-84
2022/08/29 07:34:49;;;;;;;3.70;3.30;;;19.10;99.90;;;;;;5041993;28;21189;-84
2022/08/29 07:37:16;;;;;;;6.00;4.70;;;19.20;99.90;;;;;;5043033;28;20687;-85
2022/08/29 07:39:43;;;;;;;5.27;4.07;;;19.20;99.90;;;;;;5042794;28;21013;-84
2022/08/29 07:42:11;;;;;;;5.43;3.80;;;19.30;99.90;;;;;;5042410;28;20692;-85
2022/08/29 07:44:38;;;;;;;4.60;3.83;;;19.60;99.90;;;;;;5042402;28;20638;-84
2022/08/29 07:47:06;;;;;;;5.47;4.33;;;19.80;99.90;;;;;;5041663;28;20818;-86
2022/08/29 07:49:32;;;;;;;7.80;5.70;;;19.80;99.90;;;;;;5046701;28;20625;-85
2022/08/29 07:52:02;;;;;;;5.70;4.77;;;19.80;99.90;;;;;;5054659;28;20929;-84
2022/08/29 07:54:29;;;;;;;4.23;3.57;;;19.80;99.90;;;;;;5042141;28;20642;-86
2022/08/29 07:56:58;;;;;;;4.73;4.30;;;19.60;99.90;;;;;;5042296;28;20710;-84
2022/08/29 07:59:26;;;;;;;5.50;4.80;;;19.90;99.90;;;;;;5042082;28;20627;-85
2022/08/29 08:01:53;;;;;;;5.73;3.70;;;20.30;99.90;;;;;;5040999;28;20661;-86
2022/08/29 08:04:20;;;;;;;7.33;3.70;;;20.00;99.90;;;;;;5042341;28;20618;-85
2022/08/29 08:06:47;;;;;;;3.57;3.23;;;20.00;99.90;;;;;;5042109;28;21311;-85
2022/08/29 08:09:15;;;;;;;3.77;3.23;;;20.10;99.90;;;;;;5023139;28;20627;-86
2022/08/29 08:11:42;;;;;;;4.10;3.70;;;20.10;99.90;;;;;;5035257;28;20640;-85
2022/08/29 08:14:10;;;;;;;3.63;3.23;;;20.10;99.90;;;;;;5041938;28;20731;-86
2022/08/29 08:16:38;;;;;;;3.70;3.37;;;21.10;99.90;;;;;;5042588;28;20626;-84
2022/08/29 08:19:08;;;;;;;3.93;3.40;;;20.40;99.90;;;;;;5044063;28;21172;-83
2022/08/29 08:21:35;;;;;;;4.20;3.90;;;20.40;99.90;;;;;;5043073;28;20664;-83
2022/08/29 08:24:02;;;;;;;5.10;4.03;;;20.30;99.90;;;;;;5041802;28;21258;-87
2022/08/29 08:26:29;;;;;;;4.73;3.37;;;20.60;99.60;;;;;;5042140;28;20773;-85
2022/08/29 08:28:56;;;;;;;4.40;4.00;;;20.70;99.90;;;;;;5040204;28;20642;-85
2022/08/29 08:31:24;;;;;;;4.60;3.97;;;20.90;99.50;;;;;;5041982;28;20654;-86
2022/08/29 08:33:52;;;;;;;5.40;4.30;;;21.40;98.30;;;;;;5041971;28;20680;-86
2022/08/29 08:36:22;;;;;;;4.17;3.53;;;21.10;97.90;;;;;;5041544;28;20994;-85
2022/08/29 08:38:50;;;;;;;4.73;4.13;;;21.10;98.20;;;;;;5041842;28;20635;-87
2022/08/29 08:41:30;;;;;;;4.60;4.20;;;21.10;98.80;;;;;;5040515;28;20665;-87
2022/08/29 08:44:00;;;;;;;3.70;3.37;;;21.60;98.50;;;;;;5038390;28;21166;-86
2022/08/29 08:46:39;;;;;;;8.03;4.07;;;21.60;98.40;;;;;;5021386;28;21041;-88
2022/08/29 08:49:14;;;;;;;4.40;3.97;;;22.00;97.20;;;;;;5035484;28;20638;-86
2022/08/29 08:51:44;;;;;;;4.67;4.00;;;22.20;96.50;;;;;;5042078;28;21132;-88
2022/08/29 08:54:17;;;;;;;3.03;2.83;;;22.50;95.00;;;;;;5041011;28;21045;-87
2022/08/29 08:56:47;;;;;;;4.60;3.93;;;22.60;95.10;;;;;;5046049;28;20634;-87
2022/08/29 08:59:21;;;;;;;4.20;3.50;;;22.70;94.20;;;;;;5041626;28;20704;-86
2022/08/29 09:02:00;;;;;;;6.83;4.13;;;22.80;94.90;;;;;;5041327;28;20665;-87
2022/08/29 09:04:41;;;;;;;3.70;3.40;;;22.80;93.90;;;;;;5041659;28;20618;-86
2022/08/29 09:07:22;;;;;;;6.97;4.00;;;22.80;93.80;;;;;;5040786;28;20739;-85
2022/08/29 09:10:03;;;;;;;3.83;3.37;;;23.00;93.30;;;;;;5040093;28;20634;-86
2022/08/29 09:12:41;;;;;;;4.57;3.93;;;23.10;92.80;;;;;;5040464;28;20633;-84
2022/08/29 09:15:11;;;;;;;3.30;3.00;;;23.10;93.00;;;;;;5041342;28;20665;-85
2022/08/29 09:17:43;;;;;;;3.37;3.07;;;23.10;92.80;;;;;;5040094;28;21296;-85
2022/08/29 09:20:15;;;;;;;4.97;3.00;;;23.30;91.80;;;;;;5041588;28;20665;-85
2022/08/29 09:22:49;;;;;;;3.50;2.67;;;23.60;91.40;;;;;;5040150;28;20631;-86
2022/08/29 09:25:16;;;;;;;3.80;2.87;;;23.60;91.20;;;;;;5040294;28;20718;-86
2022/08/29 09:27:44;;;;;;;3.30;3.00;;;23.60;91.30;;;;;;5041196;28;20668;-85
2022/08/29 09:30:14;;;;;;;3.60;3.33;;;23.50;91.20;;;;;;5041301;28;20661;-85
2022/08/29 09:32:58;;;;;;;5.23;3.83;;;23.40;92.70;;;;;;5041284;28;20660;-86
2022/08/29 09:35:30;;;;;;;3.77;3.47;;;23.50;92.40;;;;;;5040298;28;20737;-85
2022/08/29 09:38:00;;;;;;;4.70;3.90;;;23.70;92.20;;;;;;5041586;28;20634;-86
2022/08/29 09:40:50;;;;;;;3.77;3.20;;;23.80;91.70;;;;;;5041120;28;20691;-86
2022/08/29 09:43:25;;;;;;;4.47;3.70;;;24.00;91.60;;;;;;5040230;28;20626;-86
2022/08/29 09:46:13;;;;;;;3.90;3.53;;;24.10;90.70;;;;;;5039828;28;21105;-86
2022/08/29 09:48:42;;;;;;;4.17;3.57;;;24.00;91.00;;;;;;5041409;28;20638;-85
2022/08/29 09:51:14;;;;;;;4.40;4.00;;;23.80;91.40;;;;;;5041839;28;20725;-86
2022/08/29 09:53:42;;;;;;;3.40;3.10;;;23.80;91.90;;;;;;5041687;28;20714;-85
2022/08/29 09:56:16;;;;;;;4.40;3.50;;;24.00;88.80;;;;;;5041851;28;21033;-85
2022/08/29 09:58:43;;;;;;;4.33;3.50;;;24.20;89.20;;;;;;5040919;28;20709;-86
2022/08/29 10:01:17;;;;;;;3.87;3.57;;;24.20;89.00;;;;;;5040402;28;20629;-85
2022/08/29 10:03:54;;;;;;;4.40;3.50;;;24.40;90.10;;;;;;5039949;28;20655;-86
2022/08/29 10:06:24;;;;;;;4.00;3.60;;;24.40;90.60;;;;;;5042530;28;20670;-85
2022/08/29 10:09:04;;;;;;;3.50;3.20;;;24.30;88.50;;;;;;5044025;28;21021;-85
2022/08/29 10:11:37;;;;;;;3.93;2.50;;;24.40;87.90;;;;;;5045189;28;20633;-85
2022/08/29 10:14:08;;;;;;;3.70;2.60;;;24.20;87.40;;;;;;5043396;28;20737;-86
2022/08/29 10:16:43;;;;;;;2.90;2.70;;;24.30;88.60;;;;;;5030592;28;20644;-85
2022/08/29 10:19:13;;;;;;;3.80;2.80;;;24.50;87.50;;;;;;5040214;28;20734;-85
2022/08/29 10:21:55;;;;;;;2.87;2.30;;;24.70;86.00;;;;;;5040998;28;21219;-85
2022/08/29 10:24:35;;;;;;;2.47;2.27;;;24.80;83.60;;;;;;5042710;28;20737;-85
2022/08/29 10:27:10;;;;;;;2.87;2.40;;;24.90;81.90;;;;;;5042439;28;20715;-86
2022/08/29 10:30:02;;;;;;;4.50;2.80;;;25.00;80.70;;;;;;5041981;28;20633;-86
2022/08/29 10:32:53;;;;;;;3.10;2.80;;;25.10;83.20;;;;;;5042978;28;20626;-85
2022/08/29 10:35:26;;;;;;;2.90;2.70;;;25.00;82.30;;;;;;5041803;28;20646;-86
2022/08/29 10:37:58;;;;;;;3.17;2.87;;;24.90;82.80;;;;;;5042023;28;20699;-84
2022/08/29 10:40:36;;;;;;;3.53;3.23;;;24.90;82.30;;;;;;5043660;28;21545;-85
2022/08/29 10:43:45;;;;;;;3.50;3.30;;;24.80;84.30;;;;;;5041918;28;20779;-85
2022/08/29 10:46:36;;;;;;;5.20;3.10;;;24.90;84.70;;;;;;5040625;28;20782;-86
2022/08/29 10:49:15;;;;;;;3.20;2.90;;;25.20;84.90;;;;;;5041984;28;20638;-86
2022/08/29 10:51:48;;;;;;;2.30;2.10;;;25.00;80.50;;;;;;5042948;28;20630;-86
2022/08/29 10:54:24;;;;;;;3.83;3.30;;;25.00;83.50;;;;;;5047527;28;20629;-85
2022/08/29 10:56:52;;;;;;;3.13;2.93;;;25.20;81.40;;;;;;5045183;28;20673;-86
2022/08/29 10:59:29;;;;;;;2.80;2.60;;;25.50;80.30;;;;;;5037940;28;20762;-85
2022/08/29 11:02:01;;;;;;;2.93;2.73;;;25.60;78.80;;;;;;5042379;28;21210;-84
2022/08/29 11:04:35;;;;;;;3.00;2.50;;;25.60;77.70;;;;;;5044042;28;20880;-86
2022/08/29 11:07:07;;;;;;;3.03;2.83;;;25.60;77.40;;;;;;5042578;28;20768;-86
2022/08/29 11:09:41;;;;;;;4.93;2.80;;;25.50;80.10;;;;;;5043724;28;21188;-83
2022/08/29 11:12:13;;;;;;;3.73;3.37;;;25.40;81.00;;;;;;5044281;28;20642;-88
2022/08/29 11:14:45;;;;;;;3.10;2.50;;;25.50;78.30;;;;;;5048591;28;20637;-88
2022/08/29 11:17:14;;;;;;;4.17;2.50;;;25.20;76.20;;;;;;5046601;28;20684;-88
2022/08/29 11:19:57;;;;;;;4.07;3.30;;;25.20;76.50;;;;;;5045136;28;20819;-88
2022/08/29 11:22:30;;;;;;;3.37;3.07;;;25.20;79.20;;;;;;5045272;28;20624;-88
2022/08/29 11:25:04;;;;;;;3.40;2.73;;;25.10;80.20;;;;;;5048753;28;20629;-87
2022/08/29 11:27:40;;;;;;;3.20;2.90;;;25.20;80.80;;;;;;5028394;28;20701;-88
2022/08/29 11:30:12;;;;;;;3.23;2.93;;;25.40;81.10;;;;;;5040394;28;20826;-87
2022/08/29 11:32:49;;;;;;;3.50;3.20;;;25.40;80.90;;;;;;5043436;28;20700;-86
2022/08/29 11:35:22;;;;;;;4.93;3.27;;;25.40;79.10;;;;;;5043042;28;20732;-87
2022/08/29 11:38:40;;;;;;;3.70;2.63;;;25.40;77.80;;;;;;5043270;28;20630;-86
2022/08/29 11:41:19;;;;;;;2.90;2.67;;;25.80;76.80;;;;;;5023643;28;20662;-86
2022/08/29 11:43:49;;;;;;;3.27;3.07;;;25.90;76.50;;;;;;5033088;28;20630;-86
2022/08/29 11:46:29;;;;;;;4.10;2.90;;;26.20;76.00;;;;;;5042103;28;20773;-86
2022/08/29 11:49:40;;;;;;;4.07;3.10;;;26.90;74.90;;;;;;5042483;28;20699;-86
2022/08/29 11:52:23;;;;;;;3.17;2.33;;;27.00;74.30;;;;;;5042795;28;20653;-85
2022/08/29 11:55:32;;;;;;;4.67;3.20;;;27.60;74.60;;;;;;5037797;28;21224;-86
2022/08/29 11:58:26;;;;;;;3.70;3.40;;;28.10;71.00;;;;;;5037682;28;20741;-86
2022/08/29 12:00:54;;;;;;;3.30;3.00;;;28.70;71.50;;;;;;5039113;28;20855;-86
2022/08/29 12:03:46;;;;;;;3.03;2.73;;;29.40;69.20;;;;;;5041388;28;20998;-87
2022/08/29 12:06:30;;;;;;;3.27;3.03;;;29.70;60.70;;;;;;5031211;28;20615;-87
2022/08/29 12:09:07;;;;;;;2.80;2.60;;;29.60;60.40;;;;;;5042238;28;20614;-87
2022/08/29 12:12:11;;;;;;;3.93;3.63;;;30.00;64.70;;;;;;5041972;28;20638;-89
2022/08/29 12:14:42;;;;;;;2.87;2.70;;;30.80;60.50;;;;;;5042031;28;20632;-88
2022/08/29 12:17:30;;;;;;;2.47;2.33;;;30.70;57.20;;;;;;5041446;28;20632;-89
2022/08/29 12:20:15;;;;;;;5.80;2.67;;;30.50;57.90;;;;;;5038853;28;20684;-88
2022/08/29 12:23:05;;;;;;;3.10;2.90;;;29.70;58.40;;;;;;5038605;28;20627;-87
2022/08/29 12:25:46;;;;;;;2.70;2.43;;;28.70;59.60;;;;;;5037275;28;20733;-85
2022/08/29 12:28:37;;;;;;;2.63;2.43;;;27.10;64.20;;;;;;5041321;28;20684;-86
2022/08/29 12:31:12;;;;;;;2.93;2.73;;;27.10;65.90;;;;;;5041833;28;20658;-86
2022/08/29 12:34:06;;;;;;;2.60;2.40;;;26.80;68.00;;;;;;5041454;28;21188;-85
2022/08/29 12:36:47;;;;;;;3.03;2.83;;;26.80;67.70;;;;;;5029471;28;20650;-85
2022/08/29 12:39:31;;;;;;;2.63;2.43;;;26.80;66.80;;;;;;5034652;28;20734;-86
2022/08/29 12:42:11;;;;;;;3.43;3.13;;;26.50;63.50;;;;;;5035673;28;20720;-86
2022/08/29 12:44:40;;;;;;;3.83;3.50;;;26.10;67.50;;;;;;5041837;28;20661;-87
2022/08/29 12:47:11;;;;;;;2.47;2.27;;;25.80;69.70;;;;;;5040028;28;20757;-87
2022/08/29 12:49:47;;;;;;;2.97;2.73;;;25.70;71.30;;;;;;5041581;28;20750;-87
2022/08/29 12:52:26;;;;;;;3.40;3.20;;;25.50;70.10;;;;;;5040738;28;20907;-87
2022/08/29 12:54:55;;;;;;;3.30;3.00;;;25.50;70.60;;;;;;5022409;28;20635;-87
2022/08/29 12:57:27;;;;;;;2.90;2.53;;;25.40;74.30;;;;;;5040933;28;21153;-88
2022/08/29 12:59:56;;;;;;;2.60;2.40;;;25.40;73.40;;;;;;5040558;28;20678;-88
2022/08/29 13:02:27;;;;;;;2.50;2.30;;;26.20;73.10;;;;;;5040567;28;20633;-87
2022/08/29 13:04:55;;;;;;;3.10;2.80;;;26.40;73.40;;;;;;5041298;28;20634;-87
2022/08/29 13:07:22;;;;;;;2.57;2.37;;;27.40;70.80;;;;;;5039794;28;20676;-88
2022/08/29 13:09:52;;;;;;;2.80;2.60;;;28.50;66.00;;;;;;5041301;28;20634;-85
2022/08/29 13:12:25;;;;;;;2.93;2.73;;;28.60;63.80;;;;;;5035425;28;21103;-86